Hazel Green, Alabama
Current Conditions -  °F | °C
As of 5:15 PM on Monday 22 Dec 2014 (Local Time) from KMDQ Reporting Station
Overcast Overcast  
Wind Chill: 44°   Ceiling: 900
Heat Index: 48°   Visibility: 10mi
Dew Point: 43°   Wind: 10mph
Humidity: 82%   Direction: 140°SE
Pressure: 29.76"   Gusts: 16mph
Location:  34.93°N, 86.57°W
Report Text: KMDQ 222315Z AUTO 14009G14KT 10SM BKN009 BKN013 OVC019 09/06 A2976 RMK AO2
Loading
Personal Weather Stations






























Interactive Weather Map New forecast layout! Learn more

10-Day Weather Forecast

Advertisements
Track Severe Weather on mobile